Time;durP1;ratioP1;P1;durP2;ratioP2;P2;SDS_P1;SDS_P2;PMS_P1;PMS_P2;Temp;Humidity;BMP_temperature;BMP_pressure;BME280_temperature;BME280_humidity;BME280_pressure;Samples;Min_cycle;Max_cycle;Signal;HPM_P1;HPM_P2
2023/07/06 00:01:48;;;;;;;6.22;2.78;;;;;;;15.56;68.24;101427.78;7392224;19;20127;-54
2023/07/06 00:04:15;;;;;;;8.77;2.70;;;;;;;15.58;68.49;101433.88;7392036;19;20014;-53
2023/07/06 00:06:43;;;;;;;6.72;2.78;;;;;;;15.61;68.39;101435.44;7390216;19;20022;-54
2023/07/06 00:09:11;;;;;;;7.05;2.75;;;;;;;15.68;68.17;101439.31;7390450;19;20017;-57
2023/07/06 00:11:39;;;;;;;7.10;2.80;;;;;;;15.68;68.25;101442.00;7391513;19;20021;-55
2023/07/06 00:14:09;;;;;;;6.93;2.90;;;;;;;15.69;68.23;101433.00;7387340;19;20019;-55
2023/07/06 00:16:41;;;;;;;5.93;2.30;;;;;;;15.67;68.25;101440.28;7391099;19;20014;-55
2023/07/06 00:19:09;;;;;;;7.28;2.95;;;;;;;15.65;68.42;101442.25;7391387;19;20011;-55
2023/07/06 00:21:36;;;;;;;7.20;2.92;;;;;;;15.61;68.59;101446.13;7391389;19;20018;-54
2023/07/06 00:24:04;;;;;;;7.85;3.00;;;;;;;15.64;68.51;101450.34;7391048;19;20022;-54
2023/07/06 00:26:31;;;;;;;7.00;3.35;;;;;;;15.56;69.06;101454.50;7390939;19;20055;-55
2023/07/06 00:28:58;;;;;;;7.05;3.50;;;;;;;15.51;69.41;101454.03;7390977;19;20090;-53
2023/07/06 00:31:32;;;;;;;8.48;3.30;;;;;;;15.57;69.13;101452.69;7391736;19;20023;-54
2023/07/06 00:34:04;;;;;;;11.25;3.90;;;;;;;15.49;69.07;101465.81;7390040;19;20103;-54
2023/07/06 00:36:33;;;;;;;9.25;3.70;;;;;;;15.45;69.79;101467.88;7389158;19;20022;-54
2023/07/06 00:39:02;;;;;;;7.70;3.50;;;;;;;15.44;70.01;101470.69;7391213;19;20032;-52
2023/07/06 00:41:31;;;;;;;9.60;3.90;;;;;;;15.47;69.88;101468.63;7391171;19;20060;-54
2023/07/06 00:43:59;;;;;;;9.38;3.65;;;;;;;15.42;69.92;101462.81;7393876;19;20021;-52
2023/07/06 00:46:33;;;;;;;11.45;3.90;;;;;;;15.41;69.97;101457.59;7390444;19;20097;-55
2023/07/06 00:49:03;;;;;;;8.02;3.38;;;;;;;15.47;69.84;101470.44;7390978;19;20018;-55
2023/07/06 00:51:39;;;;;;;9.68;3.72;;;;;;;15.45;69.96;101470.53;7391060;19;20055;-54
2023/07/06 00:54:16;;;;;;;10.05;3.90;;;;;;;15.44;70.02;101468.03;7388720;19;20022;-54
2023/07/06 00:56:46;;;;;;;8.02;3.70;;;;;;;15.45;70.09;101459.03;7390377;19;20321;-60
2023/07/06 00:59:19;;;;;;;8.75;3.50;;;;;;;15.46;70.01;101464.25;7389990;19;20015;-59
2023/07/06 01:01:47;;;;;;;10.30;3.83;;;;;;;15.40;70.15;101471.91;7390792;19;20041;-59
2023/07/06 01:04:18;;;;;;;8.95;4.43;;;;;;;15.46;69.98;101468.75;7389606;19;20051;-59
2023/07/06 01:06:54;;;;;;;8.45;3.53;;;;;;;15.49;70.03;101474.69;7389895;19;20023;-60
2023/07/06 01:09:24;;;;;;;7.90;3.92;;;;;;;15.41;70.39;101468.25;7390710;19;20050;-60
2023/07/06 01:11:55;;;;;;;8.65;3.78;;;;;;;15.40;70.14;101478.09;7390456;19;20011;-58
2023/07/06 01:14:22;;;;;;;9.73;4.05;;;;;;;15.34;70.47;101482.13;7387999;19;20025;-58
2023/07/06 01:17:03;;;;;;;9.90;3.80;;;;;;;15.39;70.21;101481.75;7389503;19;20019;-58
2023/07/06 01:19:50;;;;;;;11.00;4.20;;;;;;;15.43;70.18;101487.69;7389414;19;20022;-57
2023/07/06 01:22:56;;;;;;;8.90;4.20;;;;;;;15.42;70.26;101480.66;7389751;19;20029;-57
2023/07/06 01:25:42;;;;;;;8.45;3.63;;;;;;;15.37;70.37;101475.69;7388963;19;20025;-57
2023/07/06 01:28:28;;;;;;;8.90;4.40;;;;;;;15.33;70.29;101485.75;7397142;19;20093;-57
2023/07/06 01:31:36;;;;;;;10.80;3.90;;;;;;;15.39;70.27;101480.91;7397632;19;20025;-52
2023/07/06 01:34:08;;;;;;;9.43;3.83;;;;;;;15.29;70.49;101496.81;7394439;19;20007;-51
2023/07/06 01:36:58;;;;;;;9.60;3.58;;;;;;;15.29;70.29;101492.31;7396850;19;20074;-54
2023/07/06 01:39:28;;;;;;;10.50;4.00;;;;;;;15.26;70.41;101500.59;7396998;19;20521;-52
2023/07/06 01:42:24;;;;;;;7.20;3.85;;;;;;;15.30;70.30;101494.03;7397163;19;20015;-51
2023/07/06 01:44:56;;;;;;;6.85;3.70;;;;;;;15.18;70.72;101500.34;7392270;19;20037;-54
2023/07/06 01:47:26;;;;;;;8.68;3.72;;;;;;;15.25;70.33;101500.72;7396920;19;20451;-52
2023/07/06 01:49:55;;;;;;;13.85;4.40;;;;;;;15.23;70.31;101492.84;7395737;19;20022;-54
2023/07/06 01:52:46;;;;;;;8.68;4.05;;;;;;;15.28;70.41;101505.81;7396573;19;20086;-54
2023/07/06 01:55:43;;;;;;;9.45;3.90;;;;;;;15.23;70.64;101500.84;7394127;19;20039;-58
2023/07/06 01:58:32;;;;;;;7.90;3.92;;;;;;;15.15;70.59;101497.97;7394053;19;20015;-52
2023/07/06 02:01:06;;;;;;;9.65;3.97;;;;;;;15.04;71.01;101501.47;7396451;19;20018;-55
2023/07/06 02:03:38;;;;;;;9.93;4.13;;;;;;;14.99;71.31;101503.66;7396651;19;20481;-55
2023/07/06 02:06:10;;;;;;;10.05;3.88;;;;;;;15.15;70.96;101505.97;7392851;19;20395;-56
2023/07/06 02:08:41;;;;;;;9.20;4.18;;;;;;;15.19;70.63;101499.41;7396634;19;20358;-55
2023/07/06 02:11:19;;;;;;;8.43;3.97;;;;;;;15.19;70.69;101515.41;7396161;19;20017;-55
2023/07/06 02:13:46;;;;;;;7.55;3.67;;;;;;;15.15;70.78;101515.75;7393971;19;20025;-55
2023/07/06 02:16:15;;;;;;;9.40;4.28;;;;;;;15.10;70.84;101508.97;7392081;19;20633;-53
2023/07/06 02:18:43;;;;;;;9.35;4.22;;;;;;;15.16;70.83;101504.13;7394149;19;20503;-60
2023/07/06 02:21:11;;;;;;;9.05;4.00;;;;;;;15.09;71.05;101509.13;7395767;19;20018;-60
2023/07/06 02:23:38;;;;;;;8.63;4.10;;;;;;;15.11;71.05;101509.84;7394133;19;20085;-60
2023/07/06 02:26:05;;;;;;;11.55;4.38;;;;;;;15.07;71.24;101503.03;7392555;19;20025;-60
2023/07/06 02:28:32;;;;;;;8.13;4.25;;;;;;;15.08;71.01;101504.75;7395664;19;20131;-59
2023/07/06 02:31:01;;;;;;;10.60;4.03;;;;;;;15.10;70.93;101508.13;7394766;19;20018;-59
2023/07/06 02:33:30;;;;;;;10.02;4.25;;;;;;;15.05;71.15;101511.19;7394121;19;20491;-57
2023/07/06 02:35:57;;;;;;;7.85;4.40;;;;;;;14.97;71.42;101504.78;7391699;19;20019;-56
2023/07/06 02:38:25;;;;;;;8.73;4.30;;;;;;;15.05;70.99;101510.34;7393599;19;20060;-54
2023/07/06 02:40:53;;;;;;;10.52;4.40;;;;;;;15.10;70.79;101508.13;7394648;19;20388;-53
2023/07/06 02:43:20;;;;;;;9.73;4.03;;;;;;;15.07;70.75;101506.59;7397827;19;20115;-54
2023/07/06 02:45:48;;;;;;;8.90;4.25;;;;;;;15.05;70.91;101511.19;7391593;19;20022;-49
2023/07/06 02:48:17;;;;;;;8.02;4.40;;;;;;;15.07;70.94;101508.38;7394456;19;20051;-52
2023/07/06 02:50:49;;;;;;;9.68;4.30;;;;;;;15.03;70.84;101506.94;7394131;19;20021;-54
2023/07/06 02:53:18;;;;;;;9.68;4.20;;;;;;;14.99;71.32;101506.31;7393935;19;20018;-56
2023/07/06 02:55:48;;;;;;;8.38;4.10;;;;;;;15.00;71.15;101512.53;7392024;19;20018;-56
2023/07/06 02:58:16;;;;;;;7.60;3.78;;;;;;;15.04;70.90;101511.31;7394167;19;20514;-58
2023/07/06 03:00:43;;;;;;;10.05;4.28;;;;;;;14.96;71.24;101517.25;7394092;19;20139;-57
2023/07/06 03:03:10;;;;;;;8.82;4.03;;;;;;;14.96;71.20;101527.94;7394979;19;20033;-55
2023/07/06 03:05:37;;;;;;;9.10;4.45;;;;;;;14.98;71.33;101522.47;7391520;19;20018;-55
2023/07/06 03:08:05;;;;;;;7.93;3.92;;;;;;;14.99;71.23;101527.66;7394073;19;20022;-58
2023/07/06 03:10:33;;;;;;;9.77;4.80;;;;;;;14.97;71.43;101529.63;7394169;19;20022;-58
2023/07/06 03:13:00;;;;;;;7.82;4.38;;;;;;;14.95;71.07;101531.53;7394024;19;20014;-58
2023/07/06 03:15:28;;;;;;;8.13;4.25;;;;;;;14.90;71.41;101528.41;7389736;19;20368;-57
2023/07/06 03:17:56;;;;;;;9.10;4.47;;;;;;;14.85;71.52;101534.13;7394136;19;20010;-58
2023/07/06 03:20:23;;;;;;;10.63;4.47;;;;;;;14.92;71.50;101541.59;7393857;19;20377;-57
2023/07/06 03:22:53;;;;;;;9.25;4.15;;;;;;;14.91;71.32;101538.09;7393459;19;20025;-58
2023/07/06 03:25:23;;;;;;;10.85;4.85;;;;;;;14.91;71.42;101532.75;7391193;19;20050;-58
2023/07/06 03:27:51;;;;;;;9.10;4.40;;;;;;;14.88;71.59;101538.34;7393333;19;20086;-56
2023/07/06 03:30:21;;;;;;;9.45;4.82;;;;;;;14.91;71.42;101542.59;7393427;19;20070;-58
2023/07/06 03:32:48;;;;;;;9.57;4.68;;;;;;;14.91;71.34;101545.25;7393102;19;20038;-57
2023/07/06 03:35:16;;;;;;;9.55;4.25;;;;;;;14.92;71.45;101542.50;7390821;19;20029;-58
2023/07/06 03:37:45;;;;;;;10.00;5.38;;;;;;;14.90;71.34;101551.56;7393109;19;20011;-57
2023/07/06 03:40:13;;;;;;;9.48;5.07;;;;;;;14.86;71.67;101549.13;7392712;19;20015;-58
2023/07/06 03:42:44;;;;;;;9.18;4.65;;;;;;;14.87;71.71;101556.16;7393731;19;20018;-57
2023/07/06 03:45:13;;;;;;;11.30;4.90;;;;;;;14.82;71.76;101550.34;7390958;19;20459;-57
2023/07/06 03:47:42;;;;;;;9.50;4.90;;;;;;;14.87;71.75;101556.16;7392971;19;20018;-57
2023/07/06 03:50:12;;;;;;;10.00;4.72;;;;;;;14.89;71.60;101552.53;7392400;19;20022;-55
2023/07/06 03:52:40;;;;;;;9.60;5.07;;;;;;;14.80;71.94;101548.75;7392614;19;20018;-57
2023/07/06 03:55:19;;;;;;;11.00;5.20;;;;;;;14.79;72.00;101557.75;7390182;19;20022;-58
2023/07/06 03:57:49;;;;;;;9.40;4.70;;;;;;;14.78;72.06;101562.22;7392456;19;20014;-58
2023/07/06 04:00:30;;;;;;;9.82;5.10;;;;;;;14.75;72.14;101564.28;7392253;19;20096;-58
2023/07/06 04:03:00;;;;;;;10.38;5.28;;;;;;;14.88;71.84;101557.00;7390862;19;20353;-58
2023/07/06 04:05:34;;;;;;;8.40;4.90;;;;;;;14.88;71.74;101554.34;7390279;19;20038;-58
2023/07/06 04:08:04;;;;;;;;;;;;;;;14.69;72.32;101557.63;7393801;19;20178;-60
2023/07/06 04:10:32;;;;;;;9.73;4.93;;;;;;;14.67;72.70;101559.56;7391712;19;19922;-60
2023/07/06 04:13:00;;;;;;;9.10;4.70;;;;;;;14.86;72.00;101565.13;7391901;19;20014;-60
2023/07/06 04:15:27;;;;;;;8.70;5.13;;;;;;;14.95;71.68;101558.22;7389641;19;20018;-60
2023/07/06 04:17:55;;;;;;;10.13;5.30;;;;;;;14.97;71.65;101552.78;7392129;19;20463;-59
2023/07/06 04:20:26;;;;;;;10.10;4.43;;;;;;;14.93;71.87;101560.19;7392089;19;20018;-60
2023/07/06 04:22:57;;;;;;;12.18;5.50;;;;;;;14.97;71.73;101555.44;7391120;19;20026;-60
2023/07/06 04:25:29;;;;;;;10.40;5.18;;;;;;;15.01;71.70;101556.91;7389511;19;20090;-58
2023/07/06 04:28:05;;;;;;;10.30;4.65;;;;;;;15.08;71.47;101561.63;7390823;19;20038;-50
2023/07/06 04:30:35;;;;;;;9.15;5.10;;;;;;;15.10;71.62;101570.34;7391512;19;20074;-51
2023/07/06 04:33:04;;;;;;;10.43;4.90;;;;;;;15.17;71.26;101567.19;7389541;19;20038;-52
2023/07/06 04:35:31;;;;;;;9.05;5.00;;;;;;;15.20;71.00;101567.78;7389106;19;20017;-55
2023/07/06 04:37:59;;;;;;;9.02;4.80;;;;;;;15.32;70.81;101572.13;7390945;19;20479;-55
2023/07/06 04:40:27;;;;;;;10.50;5.07;;;;;;;15.30;70.85;101570.56;7391007;19;20493;-54
2023/07/06 04:42:55;;;;;;;11.57;5.05;;;;;;;15.31;71.21;101574.94;7391939;19;20498;-54
2023/07/06 04:45:26;;;;;;;9.85;5.43;;;;;;;15.33;71.12;101576.50;7388952;19;20090;-52
2023/07/06 04:47:56;;;;;;;8.95;5.05;;;;;;;15.41;70.84;101577.69;7390749;19;20027;-55
2023/07/06 04:50:24;;;;;;;9.10;5.10;;;;;;;15.47;70.92;101579.88;7390968;19;20358;-53
2023/07/06 04:52:55;;;;;;;8.93;4.93;;;;;;;15.52;70.79;101581.19;7390269;19;20010;-55
2023/07/06 04:55:25;;;;;;;11.52;5.50;;;;;;;15.55;70.55;101582.78;7388463;19;20027;-55
2023/07/06 04:57:55;;;;;;;9.55;4.95;;;;;;;15.68;70.30;101585.31;7390899;19;20038;-53
2023/07/06 05:00:26;;;;;;;8.82;5.15;;;;;;;15.69;70.42;101582.53;7389430;19;20025;-54
2023/07/06 05:02:58;;;;;;;9.40;5.20;;;;;;;15.68;70.53;101579.97;7390578;19;20018;-55
2023/07/06 05:05:33;;;;;;;11.02;5.63;;;;;;;15.68;70.54;101586.19;7387241;19;20022;-54
2023/07/06 05:08:00;;;;;;;10.23;5.47;;;;;;;15.71;70.36;101579.72;7390592;19;20053;-54
2023/07/06 05:10:28;;;;;;;9.70;5.00;;;;;;;15.66;70.56;101588.13;7390052;19;20074;-55
2023/07/06 05:12:55;;;;;;;9.55;4.95;;;;;;;15.60;70.69;101583.25;7389881;19;20022;-54
2023/07/06 05:18:06;;;;;;;10.80;5.10;;;;;;;15.68;70.37;101599.53;7390101;19;20063;-59
2023/07/06 05:20:34;;;;;;;10.40;5.60;;;;;;;15.68;70.63;101594.19;7390667;19;20040;-59
2023/07/06 05:23:03;;;;;;;9.63;5.80;;;;;;;15.78;70.03;101595.13;7390326;19;20155;-57
2023/07/06 05:25:30;;;;;;;10.82;5.32;;;;;;;15.86;69.79;101599.00;7387332;19;20492;-57
2023/07/06 05:27:58;;;;;;;10.15;5.18;;;;;;;15.82;69.90;101599.25;7389931;19;20097;-58
2023/07/06 05:30:25;;;;;;;10.27;5.30;;;;;;;15.87;69.78;101593.50;7388411;19;20029;-58
2023/07/06 05:32:52;;;;;;;10.90;6.20;;;;;;;15.80;70.07;101589.69;7389588;19;20021;-59
2023/07/06 05:35:21;;;;;;;10.80;5.60;;;;;;;15.76;70.29;101596.25;7387483;19;20027;-57
2023/07/06 05:37:49;;;;;;;11.55;5.70;;;;;;;15.74;70.25;101592.84;7387652;19;20038;-57
2023/07/06 05:40:16;;;;;;;10.55;5.53;;;;;;;15.67;70.73;101597.81;7389683;19;20181;-57
2023/07/06 05:42:43;;;;;;;9.93;5.97;;;;;;;15.69;70.64;101603.06;7388374;19;20006;-58
2023/07/06 05:45:13;;;;;;;9.82;5.45;;;;;;;15.58;70.84;101602.06;7387018;19;20524;-58
2023/07/06 05:47:41;;;;;;;9.45;5.70;;;;;;;15.58;70.86;101607.41;7387439;19;20152;-58
2023/07/06 05:50:08;;;;;;;10.63;5.95;;;;;;;15.66;70.72;101604.16;7389818;19;20035;-59
2023/07/06 05:52:36;;;;;;;11.15;6.07;;;;;;;15.71;70.60;101609.09;7389427;19;20010;-59
2023/07/06 05:55:03;;;;;;;11.02;6.40;;;;;;;15.76;70.65;101612.28;7387614;19;20528;-59
2023/07/06 05:57:31;;;;;;;11.82;5.97;;;;;;;15.79;70.49;101606.66;7387265;19;20484;-58
2023/07/06 06:00:09;;;;;;;10.30;6.05;;;;;;;15.82;70.77;101617.09;7389490;19;20018;-56
2023/07/06 06:02:39;;;;;;;12.18;6.53;;;;;;;15.89;70.66;101612.09;7387752;19;20014;-55
2023/07/06 06:05:07;;;;;;;12.50;6.35;;;;;;;15.97;70.48;101609.63;7388781;19;20452;-55
2023/07/06 06:07:35;;;;;;;12.63;6.57;;;;;;;15.99;70.35;101613.03;7386946;19;20023;-57
2023/07/06 06:10:05;;;;;;;10.30;5.85;;;;;;;16.00;70.53;101615.56;7388733;19;20533;-56
2023/07/06 06:12:33;;;;;;;10.98;6.22;;;;;;;15.99;70.78;101616.56;7391260;19;20018;-55
2023/07/06 06:15:01;;;;;;;12.00;5.97;;;;;;;16.04;70.81;101621.53;7394371;19;20091;-56
2023/07/06 06:17:29;;;;;;;11.70;5.90;;;;;;;16.12;70.41;101627.06;7391975;19;20026;-56
2023/07/06 06:19:56;;;;;;;11.65;5.70;;;;;;;16.23;70.47;101626.19;7396055;19;20019;-62
2023/07/06 06:22:24;;;;;;;10.88;5.80;;;;;;;16.27;70.31;101625.78;7396027;19;20022;-60
2023/07/06 06:24:52;;;;;;;12.32;5.85;;;;;;;16.35;69.91;101622.47;7393162;19;20029;-60
2023/07/06 06:27:19;;;;;;;12.73;5.95;;;;;;;16.44;69.83;101627.03;7391954;19;20014;-60
2023/07/06 06:29:47;;;;;;;11.05;5.70;;;;;;;16.55;69.38;101637.66;7394295;19;20025;-51
2023/07/06 06:32:14;;;;;;;11.57;5.60;;;;;;;16.72;68.80;101643.44;7394305;19;20018;-53
2023/07/06 06:34:42;;;;;;;9.93;5.78;;;;;;;16.82;68.54;101641.66;7394240;19;20019;-55
2023/07/06 06:37:09;;;;;;;11.57;5.68;;;;;;;16.92;68.43;101644.41;7393363;19;20019;-51
2023/07/06 06:39:39;;;;;;;11.57;5.68;;;;;;;17.06;67.85;101638.72;7395486;19;20023;-52
2023/07/06 06:42:07;;;;;;;12.65;5.85;;;;;;;17.12;67.89;101638.16;7394096;19;20044;-56
2023/07/06 06:44:39;;;;;;;10.88;5.43;;;;;;;17.14;67.28;101646.09;7395702;19;20024;-62
2023/07/06 06:47:06;;;;;;;11.68;5.00;;;;;;;17.12;67.20;101638.16;7391040;19;20130;-49
2023/07/06 06:49:34;;;;;;;12.68;5.95;;;;;;;17.22;67.01;101649.78;7392986;19;20484;-53
2023/07/06 06:52:03;;;;;;;10.82;5.82;;;;;;;17.14;67.21;101654.13;7395157;19;20019;-59
2023/07/06 06:54:32;;;;;;;11.25;6.22;;;;;;;17.00;67.92;101653.47;7393434;19;20018;-58
2023/07/06 06:57:01;;;;;;;10.50;5.68;;;;;;;16.99;68.24;101654.47;7391105;19;20025;-57
2023/07/06 06:59:28;;;;;;;8.93;5.22;;;;;;;17.02;68.45;101656.88;7394386;19;20019;-58
2023/07/06 07:02:00;;;;;;;11.05;5.68;;;;;;;16.98;68.45;101665.28;7394803;19;20415;-58
2023/07/06 07:04:29;;;;;;;12.07;6.22;;;;;;;16.97;68.82;101667.09;7394515;19;20482;-58
2023/07/06 07:06:57;;;;;;;11.82;6.22;;;;;;;16.96;68.80;101667.25;7393210;19;20019;-58
2023/07/06 07:09:25;;;;;;;13.50;6.28;;;;;;;17.06;68.53;101676.19;7394425;19;20022;-58
2023/07/06 07:11:52;;;;;;;11.13;5.75;;;;;;;17.19;68.55;101670.63;7394849;19;20480;-58
2023/07/06 07:14:20;;;;;;;12.18;6.38;;;;;;;17.29;68.11;101677.72;7393716;19;20018;-58
2023/07/06 07:16:48;;;;;;;12.38;5.30;;;;;;;17.42;67.73;101676.63;7390807;19;20104;-58
2023/07/06 07:19:15;;;;;;;10.80;5.72;;;;;;;17.55;67.28;101682.59;7394008;19;20504;-58
2023/07/06 07:21:42;;;;;;;11.82;5.93;;;;;;;17.66;67.34;101684.31;7392125;19;20015;-59
2023/07/06 07:24:11;;;;;;;12.40;5.47;;;;;;;17.80;66.89;101688.50;7392820;19;20086;-58
2023/07/06 07:26:39;;;;;;;12.43;5.85;;;;;;;17.85;66.71;101680.88;7392327;19;20025;-59
2023/07/06 07:29:06;;;;;;;11.40;5.68;;;;;;;17.91;66.54;101675.81;7393003;19;20026;-58
2023/07/06 07:31:33;;;;;;;9.43;5.50;;;;;;;18.01;66.15;101678.53;7391945;19;20510;-58
2023/07/06 07:34:01;;;;;;;10.98;5.28;;;;;;;18.09;66.13;101688.56;7393748;19;20023;-58
2023/07/06 07:36:29;;;;;;;12.05;5.97;;;;;;;18.13;65.75;101679.25;7390557;19;20022;-59
2023/07/06 07:38:57;;;;;;;14.32;5.75;;;;;;;18.22;65.60;101683.75;7393181;19;20018;-56
2023/07/06 07:41:25;;;;;;;8.90;4.82;;;;;;;18.24;65.51;101688.00;7391641;19;20089;-55
2023/07/06 07:43:53;;;;;;;9.80;4.53;;;;;;;18.36;65.30;101686.03;7394987;19;20014;-58
2023/07/06 07:46:20;;;;;;;8.63;3.97;;;;;;;18.49;65.04;101683.91;7389740;19;20476;-58
2023/07/06 07:48:49;;;;;;;11.57;5.05;;;;;;;18.53;64.50;101695.19;7393178;19;20015;-58
2023/07/06 07:51:21;;;;;;;11.93;4.80;;;;;;;18.52;64.58;101697.03;7391668;19;20018;-52
2023/07/06 07:53:50;;;;;;;10.38;4.70;;;;;;;18.56;64.72;101686.88;7393037;19;20023;-54
2023/07/06 07:56:17;;;;;;;11.32;4.70;;;;;;;18.44;64.91;101683.50;7390315;19;20547;-57
2023/07/06 07:58:47;;;;;;;6.88;3.35;;;;;;;18.35;64.93;101694.19;7391345;19;20039;-57
2023/07/06 08:01:21;;;;;;;7.93;3.50;;;;;;;18.26;65.32;101694.06;7392779;19;20026;-59
2023/07/06 08:03:49;;;;;;;10.10;4.00;;;;;;;18.21;65.38;101688.28;7392094;19;20857;-57
2023/07/06 08:06:21;;;;;;;9.00;3.95;;;;;;;18.20;64.33;101691.09;7390413;19;20031;-57
2023/07/06 08:08:50;;;;;;;8.30;3.08;;;;;;;18.14;63.26;101686.31;7390889;19;20026;-58
2023/07/06 08:11:23;;;;;;;8.18;3.25;;;;;;;18.14;62.81;101688.97;7392229;19;20040;-58
2023/07/06 08:13:56;;;;;;;10.10;3.50;;;;;;;18.19;63.40;101687.56;7391021;19;20086;-58
2023/07/06 08:16:24;;;;;;;8.38;3.17;;;;;;;18.23;62.79;101696.19;7387856;19;20014;-58
2023/07/06 08:18:55;;;;;;;10.38;3.13;;;;;;;18.23;62.34;101696.19;7392415;19;20033;-58
2023/07/06 08:21:42;;;;;;;8.95;3.50;;;;;;;18.19;61.83;101697.44;7390972;19;20018;-58
2023/07/06 08:24:32;;;;;;;9.13;3.55;;;;;;;18.14;62.01;101697.88;7390544;19;20018;-59
2023/07/06 08:26:59;;;;;;;7.55;2.78;;;;;;;18.19;61.90;101700.97;7390078;19;20044;-59
2023/07/06 08:29:27;;;;;;;7.88;2.70;;;;;;;18.22;61.66;101700.69;7389436;19;20018;-59
2023/07/06 08:31:56;;;;;;;6.70;2.80;;;;;;;18.28;61.11;101699.31;7389848;19;20018;-60
2023/07/06 08:34:26;;;;;;;6.63;3.00;;;;;;;18.26;61.11;101701.25;7389991;19;20106;-58
2023/07/06 08:36:54;;;;;;;6.55;2.70;;;;;;;18.34;60.83;101704.09;7388484;19;20019;-59
2023/07/06 08:39:22;;;;;;;5.78;2.25;;;;;;;18.43;60.56;101705.06;7390406;19;20018;-58
2023/07/06 08:41:50;;;;;;;11.38;3.15;;;;;;;18.52;60.24;101710.44;7388884;19;20039;-59
2023/07/06 08:44:18;;;;;;;5.85;2.70;;;;;;;18.59;59.62;101712.56;7395497;19;20026;-59
2023/07/06 08:46:48;;;;;;;6.13;2.47;;;;;;;18.63;59.68;101719.34;7389039;19;20033;-59
2023/07/06 08:49:27;;;;;;;7.28;2.65;;;;;;;18.59;58.38;101717.94;7391223;19;20140;-58
2023/07/06 08:52:03;;;;;;;7.40;2.25;;;;;;;18.54;58.54;101712.13;7390164;19;20014;-59
2023/07/06 08:54:36;;;;;;;5.32;2.65;;;;;;;18.54;58.61;101712.13;7390848;19;20024;-58
2023/07/06 08:57:19;;;;;;;5.97;2.40;;;;;;;18.52;58.94;101713.13;7388641;19;20011;-58
2023/07/06 08:59:48;;;;;;;5.22;2.50;;;;;;;18.46;58.97;101713.69;7389632;19;20051;-58
2023/07/06 09:02:18;;;;;;;5.35;2.25;;;;;;;18.64;58.54;101723.72;7390809;19;20011;-58
2023/07/06 09:04:48;;;;;;;5.50;2.15;;;;;;;18.72;58.37;101724.72;7389820;19;20014;-59
2023/07/06 09:07:17;;;;;;;6.68;2.00;;;;;;;18.87;57.86;101721.63;7387031;19;20518;-59
2023/07/06 09:09:47;;;;;;;7.18;2.40;;;;;;;18.99;57.66;101725.84;7388941;19;20479;-59
2023/07/06 09:12:24;;;;;;;6.47;2.42;;;;;;;18.90;57.64;101721.34;7390110;19;20019;-58
2023/07/06 09:14:53;;;;;;;6.55;2.42;;;;;;;18.83;58.29;101722.91;7389147;19;20015;-58
2023/07/06 09:17:21;;;;;;;9.10;2.28;;;;;;;18.84;58.43;101724.59;7387973;19;20483;-60
2023/07/06 09:19:51;;;;;;;7.10;3.08;;;;;;;18.93;57.84;101726.44;7390668;19;20039;-60
2023/07/06 09:22:21;;;;;;;6.85;2.67;;;;;;;19.11;57.70;101727.34;7390023;19;20018;-60
2023/07/06 09:24:50;;;;;;;8.43;3.05;;;;;;;19.24;57.18;101730.59;7389728;19;20019;-59
2023/07/06 09:27:28;;;;;;;7.70;3.28;;;;;;;19.38;57.39;101728.41;7389392;19;20033;-59
2023/07/06 09:30:06;;;;;;;6.65;3.15;;;;;;;19.22;57.79;101735.25;7389536;19;20014;-60
2023/07/06 09:32:34;;;;;;;7.47;3.40;;;;;;;18.97;58.29;101735.88;7388679;19;20019;-60
2023/07/06 09:35:08;;;;;;;6.60;3.53;;;;;;;18.97;58.88;101738.56;7388713;19;20098;-59
2023/07/06 09:37:48;;;;;;;;;;;;;;;18.89;59.14;101741.13;7388610;19;20022;-60
2023/07/06 09:40:15;;;;;;;7.88;3.13;;;;;;;19.06;59.21;101735.00;7389469;19;19936;-60
2023/07/06 09:42:48;;;;;;;10.02;3.53;;;;;;;19.08;59.41;101743.78;7391143;19;20043;-60
2023/07/06 09:45:22;;;;;;;8.52;3.63;;;;;;;19.03;59.45;101751.41;7388399;19;20015;-60
2023/07/06 09:47:54;;;;;;;7.72;3.17;;;;;;;18.94;59.99;101749.59;7393051;19;20177;-60
2023/07/06 09:50:32;;;;;;;8.77;3.40;;;;;;;18.90;60.24;101762.44;7396253;19;20015;-60
2023/07/06 09:52:59;;;;;;;8.50;3.55;;;;;;;18.95;59.90;101754.81;7396634;19;20025;-60
2023/07/06 09:55:29;;;;;;;9.07;3.28;;;;;;;19.15;59.61;101766.34;7393068;19;20045;-59
2023/07/06 09:57:58;;;;;;;10.77;2.92;;;;;;;19.49;59.08;101765.84;7396875;19;20031;-60
2023/07/06 10:00:35;;;;;;;10.05;2.85;;;;;;;19.77;58.90;101763.25;7396291;19;20014;-60
2023/07/06 10:03:21;;;;;;;9.02;2.92;;;;;;;19.76;59.37;101756.16;7396207;19;20019;-60
2023/07/06 10:06:08;;;;;;;9.25;3.33;;;;;;;19.80;60.12;101757.56;7392619;19;20053;-60
2023/07/06 10:08:51;;;;;;;11.77;3.20;;;;;;;19.83;60.29;101755.41;7394857;19;20345;-60
2023/07/06 10:11:30;;;;;;;8.90;3.05;;;;;;;19.58;60.48;101753.41;7395916;19;20018;-60
2023/07/06 10:14:16;;;;;;;9.05;3.28;;;;;;;19.44;61.12;101765.44;7396237;19;20010;-59
2023/07/06 10:17:13;;;;;;;8.15;3.50;;;;;;;19.23;60.73;101757.56;7392590;19;20032;-60
2023/07/06 10:20:05;;;;;;;12.20;3.78;;;;;;;19.19;60.12;101759.72;7394456;19;20025;-60
2023/07/06 10:22:44;;;;;;;7.88;3.10;;;;;;;19.17;60.77;101755.47;7394352;19;20014;-60
2023/07/06 10:25:33;;;;;;;8.57;3.25;;;;;;;19.25;60.35;101750.22;7395333;19;20018;-60
2023/07/06 10:28:16;;;;;;;8.77;3.22;;;;;;;19.14;60.01;101755.75;7394203;19;20018;-60
2023/07/06 10:30:49;;;;;;;8.43;2.80;;;;;;;19.04;60.60;101755.81;7395703;19;20022;-60
2023/07/06 10:33:22;;;;;;;9.57;3.90;;;;;;;18.94;60.58;101758.47;7395780;19;20036;-60
2023/07/06 10:35:52;;;;;;;10.68;3.30;;;;;;;18.79;60.58;101756.38;7393896;19;20418;-60
2023/07/06 10:38:20;;;;;;;11.43;3.63;;;;;;;18.71;61.36;101749.03;7393440;19;20014;-60
2023/07/06 10:40:52;;;;;;;7.35;3.13;;;;;;;18.81;61.83;101746.34;7395797;19;20347;-60
2023/07/06 10:43:23;;;;;;;11.43;3.95;;;;;;;19.02;61.78;101763.13;7396920;19;20015;-60
2023/07/06 10:45:52;;;;;;;6.78;3.53;;;;;;;19.10;61.78;101760.56;7393566;19;20491;-60
2023/07/06 10:48:28;;;;;;;9.57;3.80;;;;;;;19.17;62.08;101777.81;7395264;19;20023;-60
2023/07/06 10:51:22;;;;;;;11.50;3.97;;;;;;;19.14;61.75;101774.56;7393600;19;20033;-60
2023/07/06 10:54:16;;;;;;;12.18;3.88;;;;;;;19.07;61.36;101785.03;7394806;19;20081;-60
2023/07/06 10:57:00;;;;;;;12.20;4.10;;;;;;;19.07;61.69;101781.50;7392018;19;20406;-60
2023/07/06 10:59:52;;;;;;;12.57;4.15;;;;;;;19.17;61.74;101793.91;7393451;19;20026;-60
2023/07/06 11:02:25;;;;;;;12.43;4.65;;;;;;;19.11;62.50;101796.31;7394408;19;20043;-60
2023/07/06 11:04:54;;;;;;;;;;;;;;;18.96;64.38;101783.38;7394298;19;20018;-60
2023/07/06 11:07:38;;;;;;;10.85;4.40;;;;;;;19.10;64.73;101790.13;7392369;19;20345;-60
2023/07/06 11:10:21;;;;;;;10.68;4.35;;;;;;;19.22;63.88;101788.97;7392689;19;20022;-60
2023/07/06 11:13:02;;;;;;;11.23;4.70;;;;;;;19.21;64.36;101792.63;7394271;19;20014;-60
2023/07/06 11:15:35;;;;;;;11.77;4.78;;;;;;;19.24;65.01;101787.00;7392822;19;20022;-60
2023/07/06 11:18:13;;;;;;;;;;;;;;;19.18;65.26;101795.59;7394703;19;20128;-60
2023/07/06 11:20:43;;;;;;;12.45;4.60;;;;;;;19.32;64.52;101798.84;7394513;19;19944;-60
2023/07/06 11:23:16;;;;;;;12.98;4.90;;;;;;;19.63;63.05;101797.66;7394376;19;20029;-60
2023/07/06 11:25:47;;;;;;;10.85;4.32;;;;;;;19.81;62.48;101796.91;7392478;19;20024;-61
2023/07/06 11:28:22;;;;;;;11.00;4.38;;;;;;;19.87;62.96;101790.91;7393975;19;20018;-61
2023/07/06 11:30:56;;;;;;;12.25;4.18;;;;;;;19.77;62.07;101790.97;7393176;19;20078;-61
2023/07/06 11:33:34;;;;;;;9.02;3.63;;;;;;;19.86;61.34;101781.16;7393291;19;20018;-61
2023/07/06 11:36:37;;;;;;;7.82;3.00;;;;;;;19.92;59.19;101783.28;7391661;19;20043;-61
2023/07/06 11:39:13;;;;;;;9.20;2.97;;;;;;;19.80;59.25;101782.59;7392777;19;20456;-61
2023/07/06 11:41:53;;;;;;;6.32;2.60;;;;;;;19.91;58.89;101781.56;7392926;19;20022;-61
2023/07/06 11:44:40;;;;;;;7.88;2.80;;;;;;;20.06;57.51;101782.75;7397779;19;20014;-61
2023/07/06 11:47:34;;;;;;;7.25;2.80;;;;;;;20.05;55.89;101782.91;7391144;19;20014;-61